KIKK/IKK METAR and TAF weather

Enter ICAO airport designator
Station Type Date Time Source
KIKK METAR 2021/10/20 07:14 UTC NOAA

KIKK 200714Z AUTO 00000KT 10SM CLR 09/08 A3011 RMK AO2


Station Type Date Time Source
KIKK Decoded METAR 2021/10/20 07:14 UTC NOAA

Kankakee, Greater Kankakee Airport, IL, United States (KIKK) 41-04-17N 087-50-47W
Oct 20, 2021 - 03:14 AM EDT / 2021.10.20 0714 UTC
Wind: Calm:0
Visibility: 10 mile(s):0
Sky conditions: clear
Temperature: 48 F (9 C)
Dew Point: 46 F (8 C)
Relative Humidity: 93%
Pressure (altimeter): 30.11 in. Hg (1019 hPa)
ob: KIKK 200714Z AUTO 00000KT 10SM CLR 09/08 A3011 RMK AO2
cycle: 7

Station Type Date Time Source
KIKK TAF UTC NOAA

Error!

Example: see airport list